Time;durP1;ratioP1;P1;durP2;ratioP2;P2;SDS_P1;SDS_P2;PMS_P1;PMS_P2;Temp;Humidity;BMP_temperature;BMP_pressure;BME280_temperature;BME280_humidity;BME280_pressure;Samples;Min_cycle;Max_cycle;Signal;HPM_P1;HPM_P2
2022/03/05 00:00:36;;;;;;;28.80;14.00;;;;;;;;;;4939681;28;92747;-79
2022/03/05 00:03:05;;;;;;;27.98;14.20;;;;;;;;;;4939537;28;92264;-78
2022/03/05 00:05:32;;;;;;;33.60;15.43;;;;;;;;;;4942519;28;93173;-78
2022/03/05 00:07:58;;;;;;;31.63;15.52;;;;;;;;;;4937894;28;95034;-78
2022/03/05 00:10:26;;;;;;;28.92;15.38;;;;;;;;;;4938026;28;98076;-79
2022/03/05 00:12:53;;;;;;;30.92;14.82;;;;;;;;;;4938495;28;92500;-81
2022/03/05 00:15:20;;;;;;;29.35;14.85;;;;;;;;;;4938124;28;92318;-78
2022/03/05 00:17:47;;;;;;;29.92;14.30;;;;;;;;;;4938255;28;93703;-79
2022/03/05 00:20:13;;;;;;;28.63;14.77;;;;;;;;;;4938138;28;92884;-79
2022/03/05 00:22:39;;;;;;;28.48;14.35;;;;;;;;;;4939186;28;92347;-78
2022/03/05 00:25:06;;;;;;;28.50;14.65;;;;;;;;;;4938328;28;96202;-77
2022/03/05 00:27:33;;;;;;;29.63;14.70;;;;;;;;;;4940528;28;95452;-78
2022/03/05 00:29:59;;;;;;;29.83;14.80;;;;;;;;;;4939347;28;92137;-78
2022/03/05 00:32:25;;;;;;;27.55;14.52;;;;;;;;;;4936042;28;98318;-78
2022/03/05 00:34:52;;;;;;;32.13;15.65;;;;;;;;;;4938261;28;92309;-79
2022/03/05 00:37:19;;;;;;;27.70;13.65;;;;;;;;;;4938182;28;93247;-79
2022/03/05 00:39:45;;;;;;;28.63;14.25;;;;;;;;;;4937611;28;97099;-78
2022/03/05 00:42:11;;;;;;;31.65;14.55;;;;;;;;;;4937505;28;94144;-78
2022/03/05 00:44:38;;;;;;;32.22;15.90;;;;;;;;;;4938370;28;93533;-78
2022/03/05 00:47:05;;;;;;;32.22;15.48;;;;;;;;;;4939261;28;93545;-79
2022/03/05 00:49:32;;;;;;;31.73;16.35;;;;;;;;;;4941631;28;91561;-78
2022/03/05 00:51:58;;;;;;;34.95;15.75;;;;;;;;;;4938683;28;93137;-78
2022/03/05 00:54:25;;;;;;;34.30;16.05;;;;;;;;;;4937547;28;92513;-79
2022/03/05 00:56:52;;;;;;;27.88;15.07;;;;;;;;;;4936488;28;94687;-77
2022/03/05 00:59:18;;;;;;;31.15;15.07;;;;;;;;;;4938434;28;93806;-77
2022/03/05 01:01:44;;;;;;;30.25;15.32;;;;;;;;;;4938431;28;92352;-78
2022/03/05 01:04:11;;;;;;;31.90;14.70;;;;;;;;;;4938554;28;93723;-77
2022/03/05 01:06:38;;;;;;;30.95;14.75;;;;;;;;;;4938573;28;92756;-77
2022/03/05 01:09:05;;;;;;;28.92;15.30;;;;;;;;;;4941479;28;92304;-79
2022/03/05 01:11:33;;;;;;;34.08;16.85;;;;;;;;;;4937960;28;93073;-78
2022/03/05 01:13:59;;;;;;;34.38;15.75;;;;;;;;;;4937690;28;91541;-79
2022/03/05 01:16:26;;;;;;;31.27;15.75;;;;;;;;;;4937392;28;93909;-77
2022/03/05 01:18:52;;;;;;;31.63;15.32;;;;;;;;;;4938262;28;93556;-78
2022/03/05 01:21:18;;;;;;;28.02;14.70;;;;;;;;;;4936431;28;95631;-79
2022/03/05 01:23:45;;;;;;;28.33;14.32;;;;;;;;;;4938126;28;95618;-78
2022/03/05 01:26:11;;;;;;;28.75;15.40;;;;;;;;;;4937857;28;92705;-78
2022/03/05 01:28:38;;;;;;;26.52;14.60;;;;;;;;;;4938183;28;92183;-78
2022/03/05 01:31:05;;;;;;;33.10;16.17;;;;;;;;;;4941229;28;93299;-79
2022/03/05 01:33:31;;;;;;;28.77;14.52;;;;;;;;;;4938161;28;92360;-78
2022/03/05 01:35:57;;;;;;;33.20;14.65;;;;;;;;;;4936862;28;95200;-79
2022/03/05 01:38:26;;;;;;;30.73;15.73;;;;;;;;;;4937340;28;92466;-77
2022/03/05 01:40:53;;;;;;;32.53;14.63;;;;;;;;;;4938011;28;92270;-78
2022/03/05 01:43:19;;;;;;;29.83;15.18;;;;;;;;;;4937965;28;92858;-78
2022/03/05 01:45:46;;;;;;;30.60;14.60;;;;;;;;;;4934496;28;94676;-78
2022/03/05 01:48:12;;;;;;;28.15;14.13;;;;;;;;;;4937960;28;92271;-78
2022/03/05 01:50:39;;;;;;;30.75;14.25;;;;;;;;;;4938000;28;92616;-78
2022/03/05 01:53:05;;;;;;;32.88;15.45;;;;;;;;;;4940237;28;93665;-78
2022/03/05 01:55:32;;;;;;;32.08;14.70;;;;;;;;;;4937972;28;93649;-77
2022/03/05 01:57:58;;;;;;;33.15;15.93;;;;;;;;;;4938018;28;93077;-77
2022/03/05 02:00:25;;;;;;;30.70;15.15;;;;;;;;;;4936051;28;92495;-78
2022/03/05 02:02:52;;;;;;;32.55;15.30;;;;;;;;;;4938851;28;92964;-78
2022/03/05 02:05:21;;;;;;;32.35;15.52;;;;;;;;;;4937014;28;93419;-78
2022/03/05 02:07:47;;;;;;;31.83;15.00;;;;;;;;;;4936174;28;92733;-77
2022/03/05 02:10:14;;;;;;;30.75;14.90;;;;;;;;;;4936027;28;94577;-78
2022/03/05 02:12:40;;;;;;;31.45;15.10;;;;;;;;;;4937567;28;92635;-79
2022/03/05 02:15:07;;;;;;;31.40;14.82;;;;;;;;;;4940915;28;92353;-78
2022/03/05 02:17:34;;;;;;;35.08;15.23;;;;;;;;;;4937714;28;93229;-78
2022/03/05 02:20:01;;;;;;;34.97;16.00;;;;;;;;;;4937631;28;92182;-78
2022/03/05 02:22:27;;;;;;;32.70;15.45;;;;;;;;;;4937369;28;92658;-77
2022/03/05 02:24:55;;;;;;;41.45;16.50;;;;;;;;;;4934887;28;94064;-79
2022/03/05 02:27:23;;;;;;;32.50;15.60;;;;;;;;;;4937892;28;91648;-78
2022/03/05 02:29:50;;;;;;;32.67;14.88;;;;;;;;;;4937219;28;92538;-77
2022/03/05 02:32:17;;;;;;;35.58;16.02;;;;;;;;;;4937011;28;93862;-78
2022/03/05 02:34:43;;;;;;;36.28;16.10;;;;;;;;;;4935531;28;94798;-79
2022/03/05 02:37:11;;;;;;;36.35;15.45;;;;;;;;;;4939786;28;95776;-77
2022/03/05 02:39:38;;;;;;;33.20;15.93;;;;;;;;;;4935956;28;92306;-79
2022/03/05 02:42:04;;;;;;;35.20;15.13;;;;;;;;;;4936013;28;95158;-78
2022/03/05 02:44:31;;;;;;;35.13;15.85;;;;;;;;;;4935211;28;96315;-79
2022/03/05 02:46:58;;;;;;;40.15;16.42;;;;;;;;;;4936786;28;92333;-79
2022/03/05 02:49:25;;;;;;;31.95;15.93;;;;;;;;;;4936891;28;93451;-80
2022/03/05 02:51:52;;;;;;;36.45;16.60;;;;;;;;;;4937522;28;93166;-79
2022/03/05 02:54:18;;;;;;;33.25;15.80;;;;;;;;;;4936216;28;94142;-77
2022/03/05 02:56:44;;;;;;;36.60;16.73;;;;;;;;;;4940431;28;93443;-78
2022/03/05 02:59:11;;;;;;;36.45;16.15;;;;;;;;;;4935731;28;94751;-78
2022/03/05 03:01:37;;;;;;;35.80;17.38;;;;;;;;;;4936857;28;96233;-78
2022/03/05 03:04:04;;;;;;;36.75;16.48;;;;;;;;;;4935035;28;94715;-78
2022/03/05 03:06:31;;;;;;;36.22;15.73;;;;;;;;;;4936835;28;92364;-77
2022/03/05 03:08:57;;;;;;;35.65;16.35;;;;;;;;;;4936580;28;93413;-78
2022/03/05 03:11:24;;;;;;;35.80;15.05;;;;;;;;;;4936365;28;94237;-78
2022/03/05 03:13:51;;;;;;;33.00;15.85;;;;;;;;;;4939362;28;92662;-78
2022/03/05 03:16:17;;;;;;;36.58;16.88;;;;;;;;;;4940934;28;93111;-77
2022/03/05 03:18:44;;;;;;;36.67;16.67;;;;;;;;;;4943103;28;92930;-76
2022/03/05 03:21:11;;;;;;;39.88;17.55;;;;;;;;;;4940326;28;92891;-78
2022/03/05 03:23:38;;;;;;;39.15;16.27;;;;;;;;;;4937488;28;95428;-77
2022/03/05 03:26:05;;;;;;;37.17;16.45;;;;;;;;;;4939276;28;92239;-77
2022/03/05 03:28:31;;;;;;;41.22;17.35;;;;;;;;;;4938954;28;96329;-80
2022/03/05 03:30:57;;;;;;;34.13;16.65;;;;;;;;;;4938669;28;95993;-78
2022/03/05 03:33:24;;;;;;;37.35;15.82;;;;;;;;;;4939337;28;92714;-79
2022/03/05 03:35:50;;;;;;;33.30;15.18;;;;;;;;;;4938720;28;95547;-78
2022/03/05 03:38:17;;;;;;;40.33;16.60;;;;;;;;;;4939269;28;92349;-78
2022/03/05 03:40:43;;;;;;;36.95;16.63;;;;;;;;;;4943027;28;91535;-77
2022/03/05 03:43:09;;;;;;;38.10;16.63;;;;;;;;;;4938581;28;94167;-79
2022/03/05 03:45:36;;;;;;;36.92;17.05;;;;;;;;;;4938335;28;92789;-77
2022/03/05 03:48:02;;;;;;;38.47;16.90;;;;;;;;;;4937580;28;94719;-79
2022/03/05 03:50:29;;;;;;;36.80;16.75;;;;;;;;;;4938081;28;95624;-78
2022/03/05 03:52:55;;;;;;;35.45;16.35;;;;;;;;;;4939945;28;92123;-79
2022/03/05 03:55:22;;;;;;;40.33;16.48;;;;;;;;;;4938404;28;92343;-78
2022/03/05 03:57:49;;;;;;;40.60;17.25;;;;;;;;;;4938454;28;95630;-78
2022/03/05 04:00:17;;;;;;;34.67;16.77;;;;;;;;;;4938375;28;92505;-78
2022/03/05 04:02:43;;;;;;;41.92;17.00;;;;;;;;;;4941413;28;92926;-78
2022/03/05 04:05:10;;;;;;;43.78;17.20;;;;;;;;;;4941289;28;91455;-80
2022/03/05 04:10:22;;;;;;;33.40;15.82;;;;;;;;;;4938391;28;93000;-79
2022/03/05 04:12:48;;;;;;;38.13;16.35;;;;;;;;;;4936562;28;94726;-79
2022/03/05 04:15:15;;;;;;;39.22;16.63;;;;;;;;;;4938670;28;95627;-79
2022/03/05 04:17:43;;;;;;;40.78;17.35;;;;;;;;;;4921772;28;94343;-79
2022/03/05 04:20:09;;;;;;;41.45;16.83;;;;;;;;;;4939440;28;92221;-78
2022/03/05 04:22:36;;;;;;;38.67;16.90;;;;;;;;;;4938426;28;92870;-78
2022/03/05 04:25:02;;;;;;;36.38;15.82;;;;;;;;;;4940168;28;95970;-79
2022/03/05 04:27:30;;;;;;;33.33;15.73;;;;;;;;;;4939425;28;92831;-79
2022/03/05 04:29:57;;;;;;;40.65;17.08;;;;;;;;;;4938281;28;95111;-77
2022/03/05 04:32:23;;;;;;;36.70;16.95;;;;;;;;;;4937770;28;93137;-78
2022/03/05 04:34:50;;;;;;;39.55;16.42;;;;;;;;;;4938323;28;92952;-78
2022/03/05 04:37:17;;;;;;;37.78;16.58;;;;;;;;;;4937453;28;95786;-80
2022/03/05 04:39:43;;;;;;;36.53;16.00;;;;;;;;;;4938116;28;92191;-78
2022/03/05 04:42:09;;;;;;;40.53;17.35;;;;;;;;;;4938979;28;92729;-79
2022/03/05 04:44:36;;;;;;;40.53;16.95;;;;;;;;;;4937475;28;93598;-79
2022/03/05 04:47:03;;;;;;;39.17;17.52;;;;;;;;;;4940982;28;92339;-79
2022/03/05 04:49:30;;;;;;;36.28;16.73;;;;;;;;;;4938815;28;93478;-78
2022/03/05 04:51:56;;;;;;;40.35;16.98;;;;;;;;;;4939037;28;92469;-77
2022/03/05 04:54:25;;;;;;;40.03;17.15;;;;;;;;;;4938160;28;96324;-79
2022/03/05 04:56:51;;;;;;;41.67;17.25;;;;;;;;;;4937739;28;93325;-81
2022/03/05 04:59:18;;;;;;;40.58;17.15;;;;;;;;;;4933229;28;92145;-79
2022/03/05 05:01:44;;;;;;;37.83;17.33;;;;;;;;;;4935912;28;94658;-78
2022/03/05 05:04:11;;;;;;;44.60;18.67;;;;;;;;;;4936951;28;96152;-79
2022/03/05 05:06:37;;;;;;;41.85;18.10;;;;;;;;;;4941638;28;92316;-78
2022/03/05 05:09:04;;;;;;;44.85;18.13;;;;;;;;;;4937079;28;93379;-79
2022/03/05 05:11:31;;;;;;;42.50;16.95;;;;;;;;;;4938530;28;92223;-79
2022/03/05 05:13:57;;;;;;;37.28;17.20;;;;;;;;;;4937332;28;94527;-79
2022/03/05 05:16:23;;;;;;;44.63;18.55;;;;;;;;;;4938563;28;93189;-78
2022/03/05 05:21:36;;;;;;;47.40;18.77;;;;;;;;;;4936911;28;94750;-78
2022/03/05 05:24:02;;;;;;;43.60;17.33;;;;;;;;;;4937839;28;94499;-79
2022/03/05 05:26:29;;;;;;;43.53;18.45;;;;;;;;;;4936680;28;94644;-78
2022/03/05 05:28:55;;;;;;;45.35;18.02;;;;;;;;;;4940066;28;96087;-78
2022/03/05 05:31:21;;;;;;;43.00;17.77;;;;;;;;;;4937316;28;92353;-78
2022/03/05 05:33:51;;;;;;;44.05;18.02;;;;;;;;;;4937285;28;93451;-78
2022/03/05 05:36:18;;;;;;;41.10;17.80;;;;;;;;;;4937764;28;92931;-79
2022/03/05 05:38:45;;;;;;;48.47;19.05;;;;;;;;;;4938137;28;92289;-78
2022/03/05 05:41:12;;;;;;;43.97;18.95;;;;;;;;;;4936876;28;95567;-77
2022/03/05 05:43:38;;;;;;;46.53;18.98;;;;;;;;;;4938431;28;92099;-78
2022/03/05 05:46:05;;;;;;;43.75;19.08;;;;;;;;;;4937911;28;92284;-79
2022/03/05 05:48:51;;;;;;;44.92;19.08;;;;;;;;;;4936841;28;92936;-78
2022/03/05 05:51:18;;;;;;;52.20;19.42;;;;;;;;;;4922237;28;97849;-78
2022/03/05 05:53:44;;;;;;;44.67;17.42;;;;;;;;;;4937802;28;95229;-78
2022/03/05 05:56:11;;;;;;;43.85;18.98;;;;;;;;;;4937814;28;93688;-78
2022/03/05 05:58:38;;;;;;;45.38;18.63;;;;;;;;;;4936544;28;93038;-77
2022/03/05 06:01:05;;;;;;;44.42;18.13;;;;;;;;;;4933802;28;95873;-78
2022/03/05 06:03:31;;;;;;;44.85;17.58;;;;;;;;;;4936630;28;92825;-78
2022/03/05 06:05:58;;;;;;;48.70;18.75;;;;;;;;;;4940555;28;92458;-78
2022/03/05 06:08:25;;;;;;;49.35;18.85;;;;;;;;;;4939610;28;92864;-79
2022/03/05 06:10:52;;;;;;;44.90;18.48;;;;;;;;;;4945653;28;92406;-78
2022/03/05 06:13:18;;;;;;;47.25;19.83;;;;;;;;;;4947606;28;92183;-78
2022/03/05 06:15:44;;;;;;;51.25;18.85;;;;;;;;;;4938933;28;95220;-80
2022/03/05 06:18:11;;;;;;;49.47;19.25;;;;;;;;;;4938373;28;92295;-77
2022/03/05 06:20:40;;;;;;;49.42;19.08;;;;;;;;;;4940464;28;92474;-76
2022/03/05 06:23:06;;;;;;;46.75;20.10;;;;;;;;;;4942070;28;92502;-77
2022/03/05 06:25:33;;;;;;;44.60;18.55;;;;;;;;;;4938449;28;92253;-77
2022/03/05 06:28:01;;;;;;;52.72;19.63;;;;;;;;;;4936552;28;93025;-78
2022/03/05 06:30:28;;;;;;;47.78;19.77;;;;;;;;;;4936968;28;93575;-77
2022/03/05 06:32:54;;;;;;;47.05;18.63;;;;;;;;;;4934331;28;91493;-77
2022/03/05 06:35:21;;;;;;;49.67;19.05;;;;;;;;;;4940266;28;92622;-78
2022/03/05 06:37:47;;;;;;;47.55;20.35;;;;;;;;;;4936469;28;92641;-77
2022/03/05 06:40:14;;;;;;;53.67;22.38;;;;;;;;;;4934770;28;94712;-77
2022/03/05 06:42:41;;;;;;;50.72;20.52;;;;;;;;;;4937160;28;93233;-77
2022/03/05 06:45:08;;;;;;;52.15;21.02;;;;;;;;;;4935536;28;92436;-77
2022/03/05 06:47:36;;;;;;;47.50;20.10;;;;;;;;;;4938712;28;93493;-77
2022/03/05 06:50:06;;;;;;;52.50;20.95;;;;;;;;;;4939227;28;94714;-77
2022/03/05 06:52:32;;;;;;;50.30;19.15;;;;;;;;;;4940406;28;92377;-77
2022/03/05 06:55:03;;;;;;;45.15;18.92;;;;;;;;;;4939416;28;96355;-77
2022/03/05 06:57:30;;;;;;;52.35;19.77;;;;;;;;;;4943230;28;93953;-78
2022/03/05 06:59:56;;;;;;;48.15;19.33;;;;;;;;;;4940117;28;92701;-77
2022/03/05 07:02:22;;;;;;;55.95;19.02;;;;;;;;;;4938959;28;95763;-78
2022/03/05 07:04:49;;;;;;;45.63;19.10;;;;;;;;;;4938914;28;94654;-77
2022/03/05 07:07:16;;;;;;;52.83;19.17;;;;;;;;;;4939187;28;96630;-80
2022/03/05 07:09:42;;;;;;;54.85;20.58;;;;;;;;;;4939162;28;96100;-79
2022/03/05 07:12:10;;;;;;;59.83;20.45;;;;;;;;;;4939193;28;92334;-79
2022/03/05 07:14:36;;;;;;;48.53;19.77;;;;;;;;;;4940122;28;92992;-77
2022/03/05 07:17:03;;;;;;;49.67;20.45;;;;;;;;;;4943118;28;93257;-78
2022/03/05 07:19:29;;;;;;;51.47;20.15;;;;;;;;;;4940273;28;92173;-77
2022/03/05 07:21:56;;;;;;;46.17;18.92;;;;;;;;;;4940612;28;92494;-77
2022/03/05 07:24:22;;;;;;;43.85;18.88;;;;;;;;;;4939961;28;92328;-72
2022/03/05 07:26:48;;;;;;;49.10;19.73;;;;;;;;;;4939450;28;93328;-73
2022/03/05 07:29:15;;;;;;;67.40;25.63;;;;;;;;;;4938065;28;96051;-77
2022/03/05 07:31:41;;;;;;;64.18;27.90;;;;;;;;;;4939744;28;92351;-75
2022/03/05 07:34:08;;;;;;;51.17;22.50;;;;;;;;;;4939649;28;93674;-78
2022/03/05 07:36:34;;;;;;;54.05;21.67;;;;;;;;;;4938827;28;95057;-75
2022/03/05 07:39:00;;;;;;;45.15;20.30;;;;;;;;;;4942715;28;92328;-76
2022/03/05 07:41:27;;;;;;;50.33;19.85;;;;;;;;;;4938277;28;92467;-79
2022/03/05 07:44:09;;;;;;;49.20;19.02;;;;;;;;;;4939451;28;94260;-76
2022/03/05 07:46:38;;;;;;;51.40;21.13;;;;;;;;;;4940152;28;92824;-76
2022/03/05 07:49:12;;;;;;;46.03;19.52;;;;;;;;;;4940085;28;93239;-77
2022/03/05 07:51:39;;;;;;;42.78;20.83;;;;;;;;;;4939890;28;92283;-79
2022/03/05 07:54:05;;;;;;;63.83;22.50;;;;;;;;;;4938019;28;94677;-78
2022/03/05 07:56:32;;;;;;;52.53;21.02;;;;;;;;;;4939291;28;93146;-76
2022/03/05 07:58:59;;;;;;;47.80;20.88;;;;;;;;;;4936831;28;92372;-80
2022/03/05 08:01:25;;;;;;;47.03;20.35;;;;;;;;;;4941626;28;93399;-78
2022/03/05 08:03:52;;;;;;;47.97;20.35;;;;;;;;;;4939342;28;92302;-77
2022/03/05 08:06:19;;;;;;;45.33;21.15;;;;;;;;;;4939347;28;93400;-76
2022/03/05 08:08:46;;;;;;;43.58;20.52;;;;;;;;;;4938911;28;93657;-78
2022/03/05 08:11:12;;;;;;;50.05;20.67;;;;;;;;;;4939658;28;91523;-75
2022/03/05 08:13:38;;;;;;;45.63;20.30;;;;;;;;;;4939463;28;92578;-75
2022/03/05 08:16:05;;;;;;;44.13;19.80;;;;;;;;;;4948770;28;93232;-76
2022/03/05 08:18:31;;;;;;;45.60;20.23;;;;;;;;;;4944412;28;95017;-77
2022/03/05 08:20:58;;;;;;;49.45;20.40;;;;;;;;;;4938837;28;95053;-76
2022/03/05 08:23:24;;;;;;;42.70;20.30;;;;;;;;;;4940993;28;93943;-75
2022/03/05 08:25:50;;;;;;;50.67;20.77;;;;;;;;;;4939156;28;93322;-74
2022/03/05 08:28:17;;;;;;;46.42;20.13;;;;;;;;;;4938837;28;93537;-74
2022/03/05 08:30:50;;;;;;;43.42;20.33;;;;;;;;;;4938934;28;92346;-74
2022/03/05 08:33:17;;;;;;;49.65;20.13;;;;;;;;;;4939000;28;93684;-74
2022/03/05 08:35:44;;;;;;;45.55;20.02;;;;;;;;;;4937618;28;96660;-74
2022/03/05 08:38:19;;;;;;;44.72;21.73;;;;;;;;;;4938740;28;92331;-75
2022/03/05 08:40:45;;;;;;;48.95;21.77;;;;;;;;;;4937639;28;94647;-75
2022/03/05 08:43:12;;;;;;;50.38;22.52;;;;;;;;;;4936940;28;95603;-75
2022/03/05 08:45:39;;;;;;;51.13;22.20;;;;;;;;;;4940986;28;92429;-75
2022/03/05 08:48:06;;;;;;;48.28;21.05;;;;;;;;;;4938523;28;93888;-74
2022/03/05 08:50:35;;;;;;;46.20;20.83;;;;;;;;;;4937773;28;92337;-75
2022/03/05 08:53:02;;;;;;;46.78;21.33;;;;;;;;;;4937595;28;94144;-74
2022/03/05 08:55:28;;;;;;;43.97;20.20;;;;;;;;;;4938632;28;93041;-75
2022/03/05 08:57:55;;;;;;;47.05;21.08;;;;;;;;;;4938486;28;92326;-74
2022/03/05 09:00:21;;;;;;;43.97;20.02;;;;;;;;;;4937822;28;93270;-75
2022/03/05 09:02:48;;;;;;;48.22;21.95;;;;;;;;;;4938180;28;94157;-73
2022/03/05 09:05:14;;;;;;;46.90;21.00;;;;;;;;;;4938165;28;93007;-72
2022/03/05 09:07:41;;;;;;;47.78;21.10;;;;;;;;;;4938901;28;94761;-75
2022/03/05 09:10:08;;;;;;;53.35;22.13;;;;;;;;;;4937889;28;92104;-79
2022/03/05 09:12:35;;;;;;;48.60;22.65;;;;;;;;;;4937781;28;93969;-74
2022/03/05 09:15:01;;;;;;;46.10;22.25;;;;;;;;;;4937773;28;94433;-74
2022/03/05 09:17:27;;;;;;;44.35;22.63;;;;;;;;;;4938325;28;92301;-71
2022/03/05 09:19:54;;;;;;;44.72;22.38;;;;;;;;;;4938222;28;93765;-75
2022/03/05 09:22:20;;;;;;;47.03;22.05;;;;;;;;;;4937938;28;93650;-74
2022/03/05 09:24:47;;;;;;;48.75;22.80;;;;;;;;;;4938345;28;91716;-75
2022/03/05 09:27:13;;;;;;;46.08;22.63;;;;;;;;;;4939698;28;93674;-75
2022/03/05 09:29:39;;;;;;;52.70;22.67;;;;;;;;;;4936698;28;92355;-77
2022/03/05 09:32:08;;;;;;;58.05;23.65;;;;;;;;;;4936640;28;94639;-77
2022/03/05 09:34:35;;;;;;;49.28;22.50;;;;;;;;;;4936446;28;96978;-74
2022/03/05 09:37:02;;;;;;;47.72;22.80;;;;;;;;;;4938114;28;92324;-74
2022/03/05 09:39:28;;;;;;;54.25;23.73;;;;;;;;;;4937574;28;92919;-74
2022/03/05 09:41:55;;;;;;;50.97;24.25;;;;;;;;;;4937589;28;93698;-75
2022/03/05 09:44:21;;;;;;;48.97;23.45;;;;;;;;;;4937562;28;92866;-76
2022/03/05 09:46:47;;;;;;;45.97;22.38;;;;;;;;;;4937746;28;92825;-76
2022/03/05 09:49:14;;;;;;;50.42;23.13;;;;;;;;;;4940914;28;93784;-76
2022/03/05 09:51:42;;;;;;;51.85;24.70;;;;;;;;;;4936404;28;93241;-76
2022/03/05 09:54:08;;;;;;;47.90;24.48;;;;;;;;;;4936271;28;93470;-77
2022/03/05 09:56:34;;;;;;;50.78;24.27;;;;;;;;;;4935555;28;94712;-76
2022/03/05 09:59:01;;;;;;;47.88;22.75;;;;;;;;;;4936595;28;95807;-74
2022/03/05 10:01:27;;;;;;;53.13;24.55;;;;;;;;;;4936120;28;93755;-75
2022/03/05 10:03:57;;;;;;;47.58;22.98;;;;;;;;;;4936683;28;92353;-75
2022/03/05 10:06:26;;;;;;;53.50;24.40;;;;;;;;;;4933268;28;94647;-75
2022/03/05 10:08:57;;;;;;;52.70;22.98;;;;;;;;;;4933219;28;93108;-76
2022/03/05 10:11:24;;;;;;;50.08;23.77;;;;;;;;;;4939929;28;92259;-73
2022/03/05 10:13:50;;;;;;;49.33;24.52;;;;;;;;;;4936770;28;93068;-77
2022/03/05 10:16:30;;;;;;;45.65;22.92;;;;;;;;;;4938046;28;92319;-76
2022/03/05 10:18:57;;;;;;;47.80;22.48;;;;;;;;;;4934573;28;92702;-75
2022/03/05 10:21:28;;;;;;;47.72;23.52;;;;;;;;;;4933448;28;97178;-75
2022/03/05 10:24:03;;;;;;;46.47;23.55;;;;;;;;;;4936197;28;92410;-75
2022/03/05 10:26:53;;;;;;;53.85;23.83;;;;;;;;;;4935734;28;93508;-75
2022/03/05 10:29:20;;;;;;;55.00;23.77;;;;;;;;;;4936492;28;93683;-75
2022/03/05 10:31:56;;;;;;;47.60;22.83;;;;;;;;;;4935615;28;92302;-74
2022/03/05 10:34:22;;;;;;;48.17;24.00;;;;;;;;;;4938394;28;92905;-75
2022/03/05 10:36:56;;;;;;;47.22;23.20;;;;;;;;;;4935507;28;92243;-75
2022/03/05 10:39:27;;;;;;;52.88;23.48;;;;;;;;;;4936759;28;93750;-75
2022/03/05 10:41:54;;;;;;;52.67;23.93;;;;;;;;;;4936064;28;93512;-72
2022/03/05 10:44:21;;;;;;;47.40;23.20;;;;;;;;;;4935676;28;92271;-74
2022/03/05 10:46:53;;;;;;;46.40;22.85;;;;;;;;;;4934934;28;94610;-74
2022/03/05 10:49:31;;;;;;;46.67;23.08;;;;;;;;;;4936178;28;93595;-76
2022/03/05 10:52:00;;;;;;;48.00;23.88;;;;;;;;;;4935869;28;93442;-76
2022/03/05 10:54:27;;;;;;;50.78;24.08;;;;;;;;;;4936309;28;94008;-77
2022/03/05 10:57:05;;;;;;;54.30;24.10;;;;;;;;;;4937859;28;94105;-76
2022/03/05 10:59:51;;;;;;;46.78;23.42;;;;;;;;;;4936079;28;93588;-77
2022/03/05 11:02:18;;;;;;;46.10;24.08;;;;;;;;;;4933035;28;93135;-74
2022/03/05 11:04:46;;;;;;;44.03;24.02;;;;;;;;;;4936880;28;92444;-74
2022/03/05 11:07:16;;;;;;;50.38;23.58;;;;;;;;;;4931792;28;92611;-74
2022/03/05 11:09:43;;;;;;;47.72;23.55;;;;;;;;;;4932280;28;93649;-76
2022/03/05 11:12:14;;;;;;;43.72;23.58;;;;;;;;;;4934013;28;94838;-74
2022/03/05 11:14:43;;;;;;;51.45;24.55;;;;;;;;;;4936192;28;95826;-73
2022/03/05 11:17:10;;;;;;;51.03;24.98;;;;;;;;;;4936045;28;93624;-76
2022/03/05 11:19:36;;;;;;;41.85;20.98;;;;;;;;;;4938909;28;92408;-75
2022/03/05 11:22:03;;;;;;;46.28;23.63;;;;;;;;;;4935657;28;93495;-75
2022/03/05 11:24:30;;;;;;;48.22;24.83;;;;;;;;;;4935954;28;93443;-76
2022/03/05 11:26:57;;;;;;;54.08;25.67;;;;;;;;;;4935837;28;94467;-76
2022/03/05 11:29:29;;;;;;;53.60;26.10;;;;;;;;;;4936342;28;92778;-75
2022/03/05 11:32:12;;;;;;;48.50;24.48;;;;;;;;;;4935476;28;92343;-75
2022/03/05 11:34:42;;;;;;;47.60;23.80;;;;;;;;;;4937505;28;94035;-74
2022/03/05 11:37:26;;;;;;;49.55;24.92;;;;;;;;;;4937507;28;96552;-73
2022/03/05 11:39:53;;;;;;;51.42;23.85;;;;;;;;;;4937415;28;92380;-73
2022/03/05 11:42:27;;;;;;;47.33;24.33;;;;;;;;;;4938258;28;93941;-74
2022/03/05 11:44:53;;;;;;;45.83;23.63;;;;;;;;;;4938493;28;92330;-74
2022/03/05 11:47:25;;;;;;;46.95;24.30;;;;;;;;;;4939028;28;93526;-74
2022/03/05 11:50:00;;;;;;;46.10;24.77;;;;;;;;;;4938515;28;94931;-74
2022/03/05 11:52:39;;;;;;;49.67;24.30;;;;;;;;;;4937330;28;92440;-74
2022/03/05 11:55:14;;;;;;;45.97;24.40;;;;;;;;;;4936409;28;93732;-75
2022/03/05 11:57:41;;;;;;;43.33;23.70;;;;;;;;;;4938608;28;93480;-74
2022/03/05 12:00:08;;;;;;;50.15;24.88;;;;;;;;;;4938686;28;92436;-74
2022/03/05 12:02:41;;;;;;;46.70;24.08;;;;;;;;;;4936283;28;94712;-75
2022/03/05 12:05:07;;;;;;;47.35;24.58;;;;;;;;;;4938644;28;92306;-75
2022/03/05 12:07:41;;;;;;;51.97;24.65;;;;;;;;;;4938135;28;94809;-75
2022/03/05 12:10:16;;;;;;;47.25;24.58;;;;;;;;;;4937271;28;94372;-74
2022/03/05 12:12:52;;;;;;;48.67;25.08;;;;;;;;;;4937464;28;92577;-75
2022/03/05 12:15:24;;;;;;;51.13;26.83;;;;;;;;;;4937681;28;93710;-74
2022/03/05 12:17:51;;;;;;;48.05;25.85;;;;;;;;;;4938396;28;93407;-75
2022/03/05 12:20:19;;;;;;;47.72;26.70;;;;;;;;;;4940010;28;91657;-76
2022/03/05 12:22:47;;;;;;;50.15;27.25;;;;;;;;;;4937758;28;93036;-75
2022/03/05 12:25:15;;;;;;;50.35;26.58;;;;;;;;;;4941138;28;94483;-75
2022/03/05 12:27:50;;;;;;;49.33;27.25;;;;;;;;;;4937050;28;94821;-76
2022/03/05 12:30:20;;;;;;;49.67;25.52;;;;;;;;;;4938643;28;93145;-75
2022/03/05 12:32:47;;;;;;;47.30;25.05;;;;;;;;;;4935505;28;93478;-75
2022/03/05 12:35:16;;;;;;;43.20;24.23;;;;;;;;;;4937344;28;93333;-75
2022/03/05 12:37:43;;;;;;;46.45;26.05;;;;;;;;;;4938311;28;93992;-75
2022/03/05 12:40:11;;;;;;;47.17;25.05;;;;;;;;;;4934797;28;92261;-75
2022/03/05 12:42:45;;;;;;;50.00;26.60;;;;;;;;;;4937573;28;93628;-75
2022/03/05 12:45:24;;;;;;;42.92;24.75;;;;;;;;;;4933254;28;92868;-76
2022/03/05 12:47:51;;;;;;;49.47;26.63;;;;;;;;;;4937733;28;92450;-75
2022/03/05 12:50:21;;;;;;;45.30;24.98;;;;;;;;;;4937962;28;93020;-75
2022/03/05 12:53:04;;;;;;;48.45;24.05;;;;;;;;;;4935505;28;95502;-75
2022/03/05 12:55:38;;;;;;;45.38;24.30;;;;;;;;;;4935762;28;95958;-74
2022/03/05 12:58:09;;;;;;;46.25;24.42;;;;;;;;;;4937843;28;93361;-75
2022/03/05 13:00:37;;;;;;;52.17;25.80;;;;;;;;;;4937904;28;92381;-76
2022/03/05 13:03:04;;;;;;;49.50;25.77;;;;;;;;;;4936998;28;93961;-76
2022/03/05 13:05:30;;;;;;;47.28;25.25;;;;;;;;;;4937504;28;95610;-74
2022/03/05 13:08:00;;;;;;;42.38;25.08;;;;;;;;;;4937812;28;92327;-77
2022/03/05 13:10:27;;;;;;;43.60;25.17;;;;;;;;;;4941318;28;92852;-76
2022/03/05 13:12:54;;;;;;;48.30;25.58;;;;;;;;;;4938547;28;92552;-76
2022/03/05 13:15:25;;;;;;;47.72;25.92;;;;;;;;;;4938423;28;93007;-74
2022/03/05 13:17:51;;;;;;;49.75;26.35;;;;;;;;;;4936629;28;95345;-77
2022/03/05 13:20:18;;;;;;;46.38;26.85;;;;;;;;;;4938235;28;92296;-75
2022/03/05 13:22:46;;;;;;;47.28;25.20;;;;;;;;;;4937302;28;94876;-72
2022/03/05 13:25:15;;;;;;;46.83;24.95;;;;;;;;;;4938189;28;92861;-75
2022/03/05 13:27:42;;;;;;;49.30;25.70;;;;;;;;;;4938179;28;92390;-76
2022/03/05 13:30:09;;;;;;;46.40;25.52;;;;;;;;;;4940951;28;93702;-74
2022/03/05 13:32:49;;;;;;;44.05;26.27;;;;;;;;;;4938219;28;92467;-75
2022/03/05 13:35:16;;;;;;;45.53;24.38;;;;;;;;;;4938094;28;93214;-75
2022/03/05 13:37:45;;;;;;;45.42;25.15;;;;;;;;;;4936891;28;92702;-75
2022/03/05 13:40:12;;;;;;;46.17;25.50;;;;;;;;;;4937846;28;92338;-75
2022/03/05 13:42:39;;;;;;;47.75;25.55;;;;;;;;;;4936344;28;94802;-77
2022/03/05 13:45:10;;;;;;;43.58;24.50;;;;;;;;;;4937280;28;93762;-75
2022/03/05 13:47:44;;;;;;;46.35;24.27;;;;;;;;;;4937808;28;92392;-75
2022/03/05 13:50:11;;;;;;;44.45;25.08;;;;;;;;;;4936550;28;95251;-76
2022/03/05 13:52:58;;;;;;;47.33;26.20;;;;;;;;;;4938781;28;95053;-75
2022/03/05 13:55:26;;;;;;;45.30;24.75;;;;;;;;;;4933241;28;93769;-75
2022/03/05 13:57:58;;;;;;;46.03;24.80;;;;;;;;;;4937335;28;92221;-74
2022/03/05 14:00:31;;;;;;;42.90;25.00;;;;;;;;;;4933561;28;91667;-76
2022/03/05 14:02:59;;;;;;;46.75;25.30;;;;;;;;;;4931772;28;93616;-74
2022/03/05 14:05:29;;;;;;;41.92;24.27;;;;;;;;;;4936975;28;93527;-74
2022/03/05 14:07:57;;;;;;;47.97;25.27;;;;;;;;;;4935442;28;95149;-74
2022/03/05 14:10:24;;;;;;;44.92;24.85;;;;;;;;;;4936918;28;94230;-74
2022/03/05 14:12:52;;;;;;;44.65;24.15;;;;;;;;;;4935273;28;94975;-74
2022/03/05 14:15:21;;;;;;;39.33;24.20;;;;;;;;;;4939738;28;92743;-75
2022/03/05 14:17:57;;;;;;;49.03;25.35;;;;;;;;;;4936918;28;92969;-74
2022/03/05 14:20:26;;;;;;;50.03;24.88;;;;;;;;;;4936830;28;92402;-75
2022/03/05 14:22:58;;;;;;;44.72;25.20;;;;;;;;;;4936194;28;93767;-76
2022/03/05 14:25:29;;;;;;;47.40;25.85;;;;;;;;;;4936633;28;92909;-76